sensor_id;sensor_type;location;lat;lon;timestamp;P1;durP1;ratioP1;P2;durP2;ratioP2
47966;SDS011;33733;52.456;13.620;2023-05-07T00:01:13;6.00;;;2.72;;
47966;SDS011;33733;52.456;13.620;2023-05-07T00:03:40;5.95;;;2.45;;
47966;SDS011;33733;52.456;13.620;2023-05-07T00:06:08;5.68;;;2.22;;
47966;SDS011;33733;52.456;13.620;2023-05-07T00:08:34;6.15;;;1.52;;
47966;SDS011;33733;52.456;13.620;2023-05-07T00:11:01;5.40;;;2.35;;
47966;SDS011;33733;52.456;13.620;2023-05-07T00:13:28;6.13;;;2.00;;
47966;SDS011;33733;52.456;13.620;2023-05-07T00:15:56;5.75;;;2.05;;
47966;SDS011;33733;52.456;13.620;2023-05-07T00:18:23;6.22;;;2.35;;
47966;SDS011;33733;52.456;13.620;2023-05-07T00:20:50;4.93;;;1.65;;
47966;SDS011;33733;52.456;13.620;2023-05-07T00:23:16;6.82;;;2.22;;
47966;SDS011;33733;52.456;13.620;2023-05-07T00:25:43;4.25;;;1.38;;
47966;SDS011;33733;52.456;13.620;2023-05-07T00:28:09;4.43;;;1.80;;
47966;SDS011;33733;52.456;13.620;2023-05-07T00:30:36;5.10;;;2.20;;
47966;SDS011;33733;52.456;13.620;2023-05-07T00:33:02;5.20;;;1.85;;
47966;SDS011;33733;52.456;13.620;2023-05-07T00:35:29;5.03;;;2.05;;
47966;SDS011;33733;52.456;13.620;2023-05-07T00:37:56;5.90;;;2.38;;
47966;SDS011;33733;52.456;13.620;2023-05-07T00:40:22;4.22;;;1.35;;
47966;SDS011;33733;52.456;13.620;2023-05-07T00:42:49;6.53;;;2.38;;
47966;SDS011;33733;52.456;13.620;2023-05-07T00:45:16;5.35;;;2.42;;
47966;SDS011;33733;52.456;13.620;2023-05-07T00:47:43;4.55;;;1.65;;
47966;SDS011;33733;52.456;13.620;2023-05-07T00:50:10;5.88;;;2.35;;
47966;SDS011;33733;52.456;13.620;2023-05-07T00:52:39;4.88;;;1.92;;
47966;SDS011;33733;52.456;13.620;2023-05-07T00:55:05;5.68;;;2.28;;
47966;SDS011;33733;52.456;13.620;2023-05-07T00:57:36;8.63;;;2.70;;
47966;SDS011;33733;52.456;13.620;2023-05-07T01:00:04;5.10;;;2.13;;
47966;SDS011;33733;52.456;13.620;2023-05-07T01:02:31;7.03;;;2.15;;
47966;SDS011;33733;52.456;13.620;2023-05-07T01:04:58;5.70;;;2.38;;
47966;SDS011;33733;52.456;13.620;2023-05-07T01:07:26;5.65;;;2.42;;
47966;SDS011;33733;52.456;13.620;2023-05-07T01:09:53;5.50;;;2.03;;
47966;SDS011;33733;52.456;13.620;2023-05-07T01:12:20;5.00;;;1.40;;
47966;SDS011;33733;52.456;13.620;2023-05-07T01:14:47;5.57;;;1.92;;
47966;SDS011;33733;52.456;13.620;2023-05-07T01:17:16;6.18;;;2.53;;
47966;SDS011;33733;52.456;13.620;2023-05-07T01:19:44;5.40;;;2.28;;
47966;SDS011;33733;52.456;13.620;2023-05-07T01:22:12;7.25;;;2.70;;
47966;SDS011;33733;52.456;13.620;2023-05-07T01:24:46;6.95;;;2.95;;
47966;SDS011;33733;52.456;13.620;2023-05-07T01:27:14;5.13;;;2.10;;
47966;SDS011;33733;52.456;13.620;2023-05-07T01:29:42;4.68;;;1.90;;
47966;SDS011;33733;52.456;13.620;2023-05-07T01:32:08;8.60;;;2.08;;
47966;SDS011;33733;52.456;13.620;2023-05-07T01:34:35;6.25;;;2.35;;
47966;SDS011;33733;52.456;13.620;2023-05-07T01:37:02;6.25;;;2.13;;
47966;SDS011;33733;52.456;13.620;2023-05-07T01:39:29;4.78;;;1.90;;
47966;SDS011;33733;52.456;13.620;2023-05-07T01:41:56;5.78;;;1.27;;
47966;SDS011;33733;52.456;13.620;2023-05-07T01:44:23;4.35;;;1.83;;
47966;SDS011;33733;52.456;13.620;2023-05-07T01:46:50;5.45;;;1.88;;
47966;SDS011;33733;52.456;13.620;2023-05-07T01:49:17;5.43;;;2.10;;
47966;SDS011;33733;52.456;13.620;2023-05-07T01:51:44;4.28;;;1.73;;
47966;SDS011;33733;52.456;13.620;2023-05-07T01:54:11;6.30;;;1.92;;
47966;SDS011;33733;52.456;13.620;2023-05-07T01:56:38;5.85;;;2.30;;
47966;SDS011;33733;52.456;13.620;2023-05-07T01:59:04;9.52;;;2.25;;
47966;SDS011;33733;52.456;13.620;2023-05-07T02:01:31;5.43;;;2.03;;
47966;SDS011;33733;52.456;13.620;2023-05-07T02:03:58;7.28;;;2.67;;
47966;SDS011;33733;52.456;13.620;2023-05-07T02:06:27;5.28;;;2.10;;
47966;SDS011;33733;52.456;13.620;2023-05-07T02:09:00;5.03;;;1.73;;
47966;SDS011;33733;52.456;13.620;2023-05-07T02:11:27;5.10;;;1.83;;
47966;SDS011;33733;52.456;13.620;2023-05-07T02:13:53;5.00;;;1.42;;
47966;SDS011;33733;52.456;13.620;2023-05-07T02:16:20;5.28;;;2.10;;
47966;SDS011;33733;52.456;13.620;2023-05-07T02:18:48;4.72;;;1.90;;
47966;SDS011;33733;52.456;13.620;2023-05-07T02:21:15;7.32;;;2.78;;
47966;SDS011;33733;52.456;13.620;2023-05-07T02:23:41;6.05;;;2.40;;
47966;SDS011;33733;52.456;13.620;2023-05-07T02:26:08;7.00;;;2.05;;
47966;SDS011;33733;52.456;13.620;2023-05-07T02:28:35;5.28;;;1.92;;
47966;SDS011;33733;52.456;13.620;2023-05-07T02:31:03;4.47;;;1.58;;
47966;SDS011;33733;52.456;13.620;2023-05-07T02:33:31;6.13;;;2.28;;
47966;SDS011;33733;52.456;13.620;2023-05-07T02:36:05;5.35;;;1.80;;
47966;SDS011;33733;52.456;13.620;2023-05-07T02:38:34;7.22;;;2.55;;
47966;SDS011;33733;52.456;13.620;2023-05-07T02:41:01;4.80;;;1.80;;
47966;SDS011;33733;52.456;13.620;2023-05-07T02:43:28;4.93;;;1.80;;
47966;SDS011;33733;52.456;13.620;2023-05-07T02:46:07;6.63;;;2.60;;
47966;SDS011;33733;52.456;13.620;2023-05-07T02:48:38;5.78;;;2.58;;
47966;SDS011;33733;52.456;13.620;2023-05-07T02:51:04;5.32;;;2.20;;
47966;SDS011;33733;52.456;13.620;2023-05-07T02:53:33;8.45;;;2.55;;
47966;SDS011;33733;52.456;13.620;2023-05-07T02:56:00;6.35;;;2.10;;
47966;SDS011;33733;52.456;13.620;2023-05-07T02:58:27;6.65;;;1.80;;
47966;SDS011;33733;52.456;13.620;2023-05-07T03:00:55;8.80;;;2.15;;
47966;SDS011;33733;52.456;13.620;2023-05-07T03:03:30;6.57;;;1.63;;
47966;SDS011;33733;52.456;13.620;2023-05-07T03:05:56;6.35;;;2.20;;
47966;SDS011;33733;52.456;13.620;2023-05-07T03:08:23;5.55;;;1.95;;
47966;SDS011;33733;52.456;13.620;2023-05-07T03:10:50;5.43;;;1.95;;
47966;SDS011;33733;52.456;13.620;2023-05-07T03:13:17;7.63;;;1.88;;
47966;SDS011;33733;52.456;13.620;2023-05-07T03:15:44;6.25;;;2.95;;
47966;SDS011;33733;52.456;13.620;2023-05-07T03:18:10;5.90;;;1.85;;
47966;SDS011;33733;52.456;13.620;2023-05-07T03:20:37;4.97;;;1.90;;
47966;SDS011;33733;52.456;13.620;2023-05-07T03:23:04;4.78;;;1.90;;
47966;SDS011;33733;52.456;13.620;2023-05-07T03:25:31;6.43;;;2.45;;
47966;SDS011;33733;52.456;13.620;2023-05-07T03:27:58;4.55;;;1.85;;
47966;SDS011;33733;52.456;13.620;2023-05-07T03:30:33;6.95;;;2.15;;
47966;SDS011;33733;52.456;13.620;2023-05-07T03:32:59;7.10;;;2.55;;
47966;SDS011;33733;52.456;13.620;2023-05-07T03:35:26;6.50;;;2.03;;
47966;SDS011;33733;52.456;13.620;2023-05-07T03:37:53;4.50;;;1.80;;
47966;SDS011;33733;52.456;13.620;2023-05-07T03:40:21;7.07;;;2.83;;
47966;SDS011;33733;52.456;13.620;2023-05-07T03:42:51;4.43;;;2.15;;
47966;SDS011;33733;52.456;13.620;2023-05-07T03:45:21;5.50;;;1.95;;
47966;SDS011;33733;52.456;13.620;2023-05-07T03:47:57;7.80;;;2.83;;
47966;SDS011;33733;52.456;13.620;2023-05-07T03:50:23;5.50;;;2.08;;
47966;SDS011;33733;52.456;13.620;2023-05-07T03:52:50;6.28;;;2.35;;
47966;SDS011;33733;52.456;13.620;2023-05-07T03:55:19;5.95;;;2.33;;
47966;SDS011;33733;52.456;13.620;2023-05-07T03:57:51;4.13;;;1.75;;
47966;SDS011;33733;52.456;13.620;2023-05-07T04:00:19;6.55;;;1.65;;
47966;SDS011;33733;52.456;13.620;2023-05-07T04:02:46;6.18;;;2.13;;
47966;SDS011;33733;52.456;13.620;2023-05-07T04:05:16;6.60;;;1.75;;
47966;SDS011;33733;52.456;13.620;2023-05-07T04:07:46;4.97;;;2.00;;
47966;SDS011;33733;52.456;13.620;2023-05-07T04:10:16;4.40;;;1.40;;
47966;SDS011;33733;52.456;13.620;2023-05-07T04:12:45;4.00;;;1.42;;
47966;SDS011;33733;52.456;13.620;2023-05-07T04:15:16;4.55;;;1.90;;
47966;SDS011;33733;52.456;13.620;2023-05-07T04:17:43;6.07;;;1.85;;
47966;SDS011;33733;52.456;13.620;2023-05-07T04:20:14;4.75;;;1.73;;
47966;SDS011;33733;52.456;13.620;2023-05-07T04:22:44;5.13;;;1.92;;
47966;SDS011;33733;52.456;13.620;2023-05-07T04:25:11;5.00;;;1.70;;
47966;SDS011;33733;52.456;13.620;2023-05-07T04:27:37;5.95;;;2.00;;
47966;SDS011;33733;52.456;13.620;2023-05-07T04:30:04;5.88;;;1.90;;
47966;SDS011;33733;52.456;13.620;2023-05-07T04:32:36;5.22;;;2.08;;
47966;SDS011;33733;52.456;13.620;2023-05-07T04:35:04;6.57;;;1.70;;
47966;SDS011;33733;52.456;13.620;2023-05-07T04:37:34;5.68;;;2.15;;
47966;SDS011;33733;52.456;13.620;2023-05-07T04:40:01;4.43;;;1.27;;
47966;SDS011;33733;52.456;13.620;2023-05-07T04:42:29;3.78;;;1.35;;
47966;SDS011;33733;52.456;13.620;2023-05-07T04:44:58;5.35;;;1.70;;
47966;SDS011;33733;52.456;13.620;2023-05-07T04:47:24;5.38;;;2.97;;
47966;SDS011;33733;52.456;13.620;2023-05-07T04:49:51;4.60;;;1.95;;
47966;SDS011;33733;52.456;13.620;2023-05-07T04:52:18;3.88;;;1.02;;
47966;SDS011;33733;52.456;13.620;2023-05-07T04:54:45;4.95;;;1.65;;
47966;SDS011;33733;52.456;13.620;2023-05-07T04:57:12;5.40;;;1.58;;
47966;SDS011;33733;52.456;13.620;2023-05-07T04:59:40;3.67;;;1.13;;
47966;SDS011;33733;52.456;13.620;2023-05-07T05:02:07;4.38;;;1.52;;
47966;SDS011;33733;52.456;13.620;2023-05-07T05:04:34;3.55;;;1.17;;
47966;SDS011;33733;52.456;13.620;2023-05-07T05:07:03;4.25;;;1.85;;
47966;SDS011;33733;52.456;13.620;2023-05-07T05:09:30;5.07;;;1.58;;
47966;SDS011;33733;52.456;13.620;2023-05-07T05:11:57;5.80;;;1.55;;
47966;SDS011;33733;52.456;13.620;2023-05-07T05:14:23;4.63;;;1.42;;
47966;SDS011;33733;52.456;13.620;2023-05-07T05:16:50;5.00;;;1.55;;
47966;SDS011;33733;52.456;13.620;2023-05-07T05:19:17;5.15;;;1.48;;
47966;SDS011;33733;52.456;13.620;2023-05-07T05:21:44;5.03;;;2.10;;
47966;SDS011;33733;52.456;13.620;2023-05-07T05:24:11;5.80;;;1.85;;
47966;SDS011;33733;52.456;13.620;2023-05-07T05:26:38;8.57;;;1.58;;
47966;SDS011;33733;52.456;13.620;2023-05-07T05:29:06;5.13;;;1.60;;
47966;SDS011;33733;52.456;13.620;2023-05-07T05:31:34;6.93;;;2.08;;
47966;SDS011;33733;52.456;13.620;2023-05-07T05:34:02;4.38;;;1.27;;
47966;SDS011;33733;52.456;13.620;2023-05-07T05:36:30;4.53;;;1.33;;
47966;SDS011;33733;52.456;13.620;2023-05-07T05:38:57;4.80;;;1.23;;
47966;SDS011;33733;52.456;13.620;2023-05-07T05:41:27;4.85;;;1.50;;
47966;SDS011;33733;52.456;13.620;2023-05-07T05:43:54;5.05;;;1.40;;
47966;SDS011;33733;52.456;13.620;2023-05-07T05:46:21;4.47;;;1.63;;
47966;SDS011;33733;52.456;13.620;2023-05-07T05:48:49;6.30;;;1.90;;
47966;SDS011;33733;52.456;13.620;2023-05-07T05:51:16;5.90;;;1.42;;
47966;SDS011;33733;52.456;13.620;2023-05-07T05:53:44;3.95;;;1.35;;
47966;SDS011;33733;52.456;13.620;2023-05-07T05:56:11;3.72;;;1.77;;
47966;SDS011;33733;52.456;13.620;2023-05-07T05:58:40;3.00;;;1.17;;
47966;SDS011;33733;52.456;13.620;2023-05-07T06:01:07;4.35;;;1.48;;
47966;SDS011;33733;52.456;13.620;2023-05-07T06:03:35;4.88;;;1.52;;
47966;SDS011;33733;52.456;13.620;2023-05-07T06:06:06;4.20;;;1.40;;
47966;SDS011;33733;52.456;13.620;2023-05-07T06:08:33;4.88;;;1.63;;
47966;SDS011;33733;52.456;13.620;2023-05-07T06:11:03;7.40;;;2.35;;
47966;SDS011;33733;52.456;13.620;2023-05-07T06:13:33;5.45;;;2.15;;
47966;SDS011;33733;52.456;13.620;2023-05-07T06:16:00;4.88;;;1.73;;
47966;SDS011;33733;52.456;13.620;2023-05-07T06:18:26;4.80;;;2.10;;
47966;SDS011;33733;52.456;13.620;2023-05-07T06:20:53;4.47;;;1.50;;
47966;SDS011;33733;52.456;13.620;2023-05-07T06:23:24;3.75;;;1.10;;
47966;SDS011;33733;52.456;13.620;2023-05-07T06:25:51;4.65;;;1.67;;
47966;SDS011;33733;52.456;13.620;2023-05-07T06:28:21;3.67;;;1.08;;
47966;SDS011;33733;52.456;13.620;2023-05-07T06:30:49;4.20;;;1.40;;
47966;SDS011;33733;52.456;13.620;2023-05-07T06:33:17;4.40;;;1.42;;
47966;SDS011;33733;52.456;13.620;2023-05-07T06:35:43;4.55;;;1.70;;
47966;SDS011;33733;52.456;13.620;2023-05-07T06:38:10;4.45;;;1.55;;
47966;SDS011;33733;52.456;13.620;2023-05-07T06:40:38;4.93;;;1.50;;
47966;SDS011;33733;52.456;13.620;2023-05-07T06:43:05;5.15;;;1.80;;
47966;SDS011;33733;52.456;13.620;2023-05-07T06:45:54;4.20;;;1.40;;
47966;SDS011;33733;52.456;13.620;2023-05-07T06:48:21;4.05;;;1.67;;
47966;SDS011;33733;52.456;13.620;2023-05-07T06:50:55;4.15;;;1.25;;
47966;SDS011;33733;52.456;13.620;2023-05-07T06:55:12;4.60;;;1.40;;
47966;SDS011;33733;52.456;13.620;2023-05-07T06:57:38;2.33;;;0.75;;
47966;SDS011;33733;52.456;13.620;2023-05-07T07:00:06;3.92;;;1.10;;
47966;SDS011;33733;52.456;13.620;2023-05-07T07:02:44;3.80;;;1.27;;
47966;SDS011;33733;52.456;13.620;2023-05-07T07:05:13;3.17;;;0.98;;
47966;SDS011;33733;52.456;13.620;2023-05-07T07:07:40;3.25;;;1.15;;
47966;SDS011;33733;52.456;13.620;2023-05-07T07:10:07;4.15;;;2.00;;
47966;SDS011;33733;52.456;13.620;2023-05-07T07:12:34;4.13;;;1.42;;
47966;SDS011;33733;52.456;13.620;2023-05-07T07:15:01;4.35;;;1.13;;
47966;SDS011;33733;52.456;13.620;2023-05-07T07:17:28;6.63;;;1.23;;
47966;SDS011;33733;52.456;13.620;2023-05-07T07:19:55;3.08;;;1.13;;
47966;SDS011;33733;52.456;13.620;2023-05-07T07:22:22;4.72;;;0.98;;
47966;SDS011;33733;52.456;13.620;2023-05-07T07:24:48;2.88;;;0.80;;
47966;SDS011;33733;52.456;13.620;2023-05-07T07:27:16;4.05;;;1.05;;
47966;SDS011;33733;52.456;13.620;2023-05-07T07:29:43;4.80;;;1.45;;
47966;SDS011;33733;52.456;13.620;2023-05-07T07:32:10;3.60;;;0.90;;
47966;SDS011;33733;52.456;13.620;2023-05-07T07:34:37;5.22;;;2.38;;
47966;SDS011;33733;52.456;13.620;2023-05-07T07:37:04;4.00;;;1.33;;
47966;SDS011;33733;52.456;13.620;2023-05-07T07:42:00;3.58;;;1.05;;
47966;SDS011;33733;52.456;13.620;2023-05-07T07:44:28;3.33;;;1.02;;
47966;SDS011;33733;52.456;13.620;2023-05-07T07:46:59;3.17;;;0.95;;
47966;SDS011;33733;52.456;13.620;2023-05-07T07:49:27;3.42;;;1.17;;
47966;SDS011;33733;52.456;13.620;2023-05-07T07:51:55;3.22;;;0.90;;
47966;SDS011;33733;52.456;13.620;2023-05-07T07:54:25;4.57;;;1.15;;
47966;SDS011;33733;52.456;13.620;2023-05-07T07:56:52;3.83;;;0.95;;
47966;SDS011;33733;52.456;13.620;2023-05-07T07:59:19;3.88;;;0.68;;
47966;SDS011;33733;52.456;13.620;2023-05-07T08:01:48;2.88;;;0.75;;
47966;SDS011;33733;52.456;13.620;2023-05-07T08:04:20;2.97;;;0.85;;
47966;SDS011;33733;52.456;13.620;2023-05-07T08:06:48;3.53;;;1.10;;
47966;SDS011;33733;52.456;13.620;2023-05-07T08:09:14;2.47;;;0.75;;
47966;SDS011;33733;52.456;13.620;2023-05-07T08:11:41;2.65;;;0.75;;
47966;SDS011;33733;52.456;13.620;2023-05-07T08:14:08;4.38;;;1.40;;
47966;SDS011;33733;52.456;13.620;2023-05-07T08:16:35;2.75;;;0.82;;
47966;SDS011;33733;52.456;13.620;2023-05-07T08:19:02;2.65;;;0.60;;
47966;SDS011;33733;52.456;13.620;2023-05-07T08:21:29;4.68;;;0.80;;
47966;SDS011;33733;52.456;13.620;2023-05-07T08:24:00;3.22;;;0.60;;
47966;SDS011;33733;52.456;13.620;2023-05-07T08:26:27;3.08;;;0.50;;
47966;SDS011;33733;52.456;13.620;2023-05-07T08:28:54;2.55;;;0.57;;
47966;SDS011;33733;52.456;13.620;2023-05-07T08:31:20;3.60;;;0.85;;
47966;SDS011;33733;52.456;13.620;2023-05-07T08:33:47;3.13;;;0.82;;
47966;SDS011;33733;52.456;13.620;2023-05-07T08:36:14;3.10;;;0.82;;
47966;SDS011;33733;52.456;13.620;2023-05-07T08:38:40;5.03;;;1.70;;
47966;SDS011;33733;52.456;13.620;2023-05-07T08:41:11;3.80;;;1.13;;
47966;SDS011;33733;52.456;13.620;2023-05-07T08:43:41;3.92;;;1.02;;
47966;SDS011;33733;52.456;13.620;2023-05-07T08:46:09;3.65;;;0.93;;
47966;SDS011;33733;52.456;13.620;2023-05-07T08:48:41;3.25;;;1.08;;
47966;SDS011;33733;52.456;13.620;2023-05-07T08:51:12;3.80;;;0.65;;
47966;SDS011;33733;52.456;13.620;2023-05-07T08:53:40;3.58;;;0.77;;
47966;SDS011;33733;52.456;13.620;2023-05-07T08:56:10;5.28;;;0.70;;
47966;SDS011;33733;52.456;13.620;2023-05-07T08:58:38;2.35;;;0.47;;
47966;SDS011;33733;52.456;13.620;2023-05-07T09:01:09;2.85;;;0.60;;
47966;SDS011;33733;52.456;13.620;2023-05-07T09:03:37;2.75;;;1.00;;
47966;SDS011;33733;52.456;13.620;2023-05-07T09:06:05;2.35;;;0.60;;
47966;SDS011;33733;52.456;13.620;2023-05-07T09:08:33;3.47;;;0.57;;
47966;SDS011;33733;52.456;13.620;2023-05-07T09:11:02;2.83;;;0.70;;
47966;SDS011;33733;52.456;13.620;2023-05-07T09:13:29;3.15;;;0.82;;
47966;SDS011;33733;52.456;13.620;2023-05-07T09:15:57;3.45;;;0.93;;
47966;SDS011;33733;52.456;13.620;2023-05-07T09:18:24;2.17;;;0.55;;
47966;SDS011;33733;52.456;13.620;2023-05-07T09:20:52;2.30;;;0.80;;
47966;SDS011;33733;52.456;13.620;2023-05-07T09:23:20;3.50;;;1.10;;
47966;SDS011;33733;52.456;13.620;2023-05-07T09:25:47;1.85;;;0.40;;
47966;SDS011;33733;52.456;13.620;2023-05-07T09:28:21;2.15;;;0.40;;
47966;SDS011;33733;52.456;13.620;2023-05-07T09:30:47;2.83;;;1.10;;
47966;SDS011;33733;52.456;13.620;2023-05-07T09:33:14;2.00;;;0.57;;
47966;SDS011;33733;52.456;13.620;2023-05-07T09:35:45;3.72;;;0.73;;
47966;SDS011;33733;52.456;13.620;2023-05-07T09:38:16;2.40;;;0.55;;
47966;SDS011;33733;52.456;13.620;2023-05-07T09:40:44;3.00;;;0.60;;
47966;SDS011;33733;52.456;13.620;2023-05-07T09:43:13;2.83;;;0.47;;
47966;SDS011;33733;52.456;13.620;2023-05-07T09:45:46;2.55;;;0.77;;
47966;SDS011;33733;52.456;13.620;2023-05-07T09:48:19;2.70;;;0.63;;
47966;SDS011;33733;52.456;13.620;2023-05-07T09:50:49;2.95;;;0.60;;
47966;SDS011;33733;52.456;13.620;2023-05-07T09:53:18;2.63;;;0.63;;
47966;SDS011;33733;52.456;13.620;2023-05-07T09:55:45;3.60;;;0.82;;
47966;SDS011;33733;52.456;13.620;2023-05-07T09:58:13;2.70;;;0.52;;
47966;SDS011;33733;52.456;13.620;2023-05-07T10:00:41;3.42;;;0.68;;
47966;SDS011;33733;52.456;13.620;2023-05-07T10:03:12;1.60;;;0.40;;
47966;SDS011;33733;52.456;13.620;2023-05-07T10:05:49;1.90;;;0.40;;
47966;SDS011;33733;52.456;13.620;2023-05-07T10:08:17;2.08;;;0.50;;
47966;SDS011;33733;52.456;13.620;2023-05-07T10:10:48;1.55;;;0.38;;
47966;SDS011;33733;52.456;13.620;2023-05-07T10:13:20;1.35;;;0.30;;
47966;SDS011;33733;52.456;13.620;2023-05-07T10:15:50;3.38;;;1.48;;
47966;SDS011;33733;52.456;13.620;2023-05-07T10:18:19;3.63;;;0.70;;
47966;SDS011;33733;52.456;13.620;2023-05-07T10:20:51;2.03;;;0.35;;
47966;SDS011;33733;52.456;13.620;2023-05-07T10:23:22;3.28;;;0.50;;
47966;SDS011;33733;52.456;13.620;2023-05-07T10:25:52;2.35;;;0.40;;
47966;SDS011;33733;52.456;13.620;2023-05-07T10:28:26;2.08;;;0.50;;
47966;SDS011;33733;52.456;13.620;2023-05-07T10:30:59;2.17;;;0.40;;
47966;SDS011;33733;52.456;13.620;2023-05-07T10:33:39;1.60;;;0.32;;
47966;SDS011;33733;52.456;13.620;2023-05-07T10:36:07;1.58;;;0.40;;
47966;SDS011;33733;52.456;13.620;2023-05-07T10:38:34;2.13;;;0.63;;
47966;SDS011;33733;52.456;13.620;2023-05-07T10:41:01;1.90;;;0.75;;
47966;SDS011;33733;52.456;13.620;2023-05-07T10:43:43;2.17;;;0.60;;
47966;SDS011;33733;52.456;13.620;2023-05-07T10:46:20;2.03;;;0.38;;
47966;SDS011;33733;52.456;13.620;2023-05-07T10:51:40;3.50;;;1.02;;
47966;SDS011;33733;52.456;13.620;2023-05-07T10:54:20;2.13;;;0.40;;
47966;SDS011;33733;52.456;13.620;2023-05-07T10:56:55;2.50;;;0.52;;
47966;SDS011;33733;52.456;13.620;2023-05-07T10:59:29;2.08;;;0.45;;
47966;SDS011;33733;52.456;13.620;2023-05-07T11:02:05;2.22;;;0.77;;
47966;SDS011;33733;52.456;13.620;2023-05-07T11:04:40;1.50;;;0.40;;
47966;SDS011;33733;52.456;13.620;2023-05-07T11:07:21;2.28;;;0.50;;
47966;SDS011;33733;52.456;13.620;2023-05-07T11:09:57;1.50;;;0.40;;
47966;SDS011;33733;52.456;13.620;2023-05-07T11:12:50;2.70;;;0.63;;
47966;SDS011;33733;52.456;13.620;2023-05-07T11:15:33;2.03;;;0.52;;
47966;SDS011;33733;52.456;13.620;2023-05-07T11:18:51;2.45;;;0.50;;
47966;SDS011;33733;52.456;13.620;2023-05-07T11:21:39;2.08;;;0.55;;
47966;SDS011;33733;52.456;13.620;2023-05-07T11:24:23;2.92;;;0.60;;
47966;SDS011;33733;52.456;13.620;2023-05-07T11:26:56;2.00;;;0.43;;
47966;SDS011;33733;52.456;13.620;2023-05-07T11:29:25;2.80;;;0.93;;
47966;SDS011;33733;52.456;13.620;2023-05-07T11:31:58;2.45;;;0.60;;
47966;SDS011;33733;52.456;13.620;2023-05-07T11:34:31;2.13;;;0.30;;
47966;SDS011;33733;52.456;13.620;2023-05-07T11:36:58;1.45;;;0.40;;
47966;SDS011;33733;52.456;13.620;2023-05-07T11:39:41;2.45;;;0.40;;
47966;SDS011;33733;52.456;13.620;2023-05-07T11:42:07;2.70;;;0.57;;
47966;SDS011;33733;52.456;13.620;2023-05-07T11:44:51;1.45;;;0.40;;
47966;SDS011;33733;52.456;13.620;2023-05-07T11:47:18;3.05;;;1.00;;
47966;SDS011;33733;52.456;13.620;2023-05-07T11:49:48;2.17;;;0.40;;
47966;SDS011;33733;52.456;13.620;2023-05-07T11:52:16;2.15;;;0.40;;
47966;SDS011;33733;52.456;13.620;2023-05-07T11:54:50;2.33;;;0.30;;
47966;SDS011;33733;52.456;13.620;2023-05-07T11:57:16;2.05;;;0.50;;
47966;SDS011;33733;52.456;13.620;2023-05-07T11:59:43;2.83;;;0.75;;
47966;SDS011;33733;52.456;13.620;2023-05-07T12:02:14;2.00;;;0.40;;
47966;SDS011;33733;52.456;13.620;2023-05-07T12:04:41;2.67;;;0.63;;
47966;SDS011;33733;52.456;13.620;2023-05-07T12:07:11;2.30;;;0.45;;
47966;SDS011;33733;52.456;13.620;2023-05-07T12:09:43;1.75;;;0.40;;
47966;SDS011;33733;52.456;13.620;2023-05-07T12:12:10;1.52;;;0.30;;
47966;SDS011;33733;52.456;13.620;2023-05-07T12:14:38;1.77;;;0.43;;
47966;SDS011;33733;52.456;13.620;2023-05-07T12:17:09;2.50;;;0.50;;
47966;SDS011;33733;52.456;13.620;2023-05-07T12:19:37;2.30;;;0.35;;
47966;SDS011;33733;52.456;13.620;2023-05-07T12:22:04;1.83;;;0.40;;
47966;SDS011;33733;52.456;13.620;2023-05-07T12:24:45;1.88;;;0.50;;
47966;SDS011;33733;52.456;13.620;2023-05-07T12:27:13;2.38;;;0.50;;
47966;SDS011;33733;52.456;13.620;2023-05-07T12:29:44;2.60;;;0.47;;
47966;SDS011;33733;52.456;13.620;2023-05-07T12:32:16;1.77;;;0.52;;
47966;SDS011;33733;52.456;13.620;2023-05-07T12:34:43;1.52;;;0.50;;
47966;SDS011;33733;52.456;13.620;2023-05-07T12:37:11;1.45;;;0.52;;
47966;SDS011;33733;52.456;13.620;2023-05-07T12:39:48;1.70;;;0.43;;
47966;SDS011;33733;52.456;13.620;2023-05-07T12:42:15;1.52;;;0.43;;
47966;SDS011;33733;52.456;13.620;2023-05-07T12:44:45;1.35;;;0.25;;
47966;SDS011;33733;52.456;13.620;2023-05-07T12:47:12;1.35;;;0.25;;
47966;SDS011;33733;52.456;13.620;2023-05-07T12:49:39;2.00;;;0.50;;
47966;SDS011;33733;52.456;13.620;2023-05-07T12:52:06;1.92;;;0.57;;
47966;SDS011;33733;52.456;13.620;2023-05-07T12:54:33;2.20;;;0.95;;
47966;SDS011;33733;52.456;13.620;2023-05-07T12:57:05;2.35;;;0.65;;
47966;SDS011;33733;52.456;13.620;2023-05-07T12:59:39;2.28;;;0.75;;
47966;SDS011;33733;52.456;13.620;2023-05-07T13:02:06;2.53;;;0.50;;
47966;SDS011;33733;52.456;13.620;2023-05-07T13:04:35;2.35;;;0.50;;
47966;SDS011;33733;52.456;13.620;2023-05-07T13:07:02;2.13;;;0.73;;
47966;SDS011;33733;52.456;13.620;2023-05-07T13:09:29;1.10;;;0.28;;
47966;SDS011;33733;52.456;13.620;2023-05-07T13:11:55;2.03;;;0.43;;
47966;SDS011;33733;52.456;13.620;2023-05-07T13:14:22;1.83;;;0.32;;
47966;SDS011;33733;52.456;13.620;2023-05-07T13:16:49;1.58;;;0.30;;
47966;SDS011;33733;52.456;13.620;2023-05-07T13:19:15;1.67;;;0.30;;
47966;SDS011;33733;52.456;13.620;2023-05-07T13:21:42;1.77;;;0.30;;
47966;SDS011;33733;52.456;13.620;2023-05-07T13:24:08;2.88;;;0.73;;
47966;SDS011;33733;52.456;13.620;2023-05-07T13:26:35;2.28;;;0.88;;
47966;SDS011;33733;52.456;13.620;2023-05-07T13:29:02;1.75;;;0.57;;
47966;SDS011;33733;52.456;13.620;2023-05-07T13:31:28;2.50;;;0.52;;
47966;SDS011;33733;52.456;13.620;2023-05-07T13:33:56;1.70;;;0.40;;
47966;SDS011;33733;52.456;13.620;2023-05-07T13:36:23;2.80;;;0.63;;
47966;SDS011;33733;52.456;13.620;2023-05-07T13:38:50;2.10;;;0.63;;
47966;SDS011;33733;52.456;13.620;2023-05-07T13:41:17;2.45;;;0.75;;
47966;SDS011;33733;52.456;13.620;2023-05-07T13:43:44;1.52;;;0.47;;
47966;SDS011;33733;52.456;13.620;2023-05-07T13:46:10;2.00;;;0.90;;
47966;SDS011;33733;52.456;13.620;2023-05-07T13:48:37;2.58;;;0.63;;
47966;SDS011;33733;52.456;13.620;2023-05-07T13:51:04;1.67;;;0.32;;
47966;SDS011;33733;52.456;13.620;2023-05-07T13:53:30;1.73;;;0.47;;
47966;SDS011;33733;52.456;13.620;2023-05-07T13:55:57;1.52;;;0.28;;
47966;SDS011;33733;52.456;13.620;2023-05-07T13:58:23;2.30;;;0.40;;
47966;SDS011;33733;52.456;13.620;2023-05-07T14:00:50;2.78;;;0.60;;
47966;SDS011;33733;52.456;13.620;2023-05-07T14:03:16;1.40;;;0.35;;
47966;SDS011;33733;52.456;13.620;2023-05-07T14:05:46;2.00;;;0.35;;
47966;SDS011;33733;52.456;13.620;2023-05-07T14:08:15;2.60;;;0.43;;
47966;SDS011;33733;52.456;13.620;2023-05-07T14:13:11;1.67;;;0.40;;
47966;SDS011;33733;52.456;13.620;2023-05-07T14:15:37;1.80;;;0.45;;
47966;SDS011;33733;52.456;13.620;2023-05-07T14:18:04;1.85;;;0.52;;
47966;SDS011;33733;52.456;13.620;2023-05-07T14:20:31;2.60;;;0.60;;
47966;SDS011;33733;52.456;13.620;2023-05-07T14:22:58;1.77;;;0.47;;
47966;SDS011;33733;52.456;13.620;2023-05-07T14:25:24;1.70;;;0.35;;
47966;SDS011;33733;52.456;13.620;2023-05-07T14:27:51;1.95;;;0.40;;
47966;SDS011;33733;52.456;13.620;2023-05-07T14:30:17;2.47;;;0.70;;
47966;SDS011;33733;52.456;13.620;2023-05-07T14:32:44;2.22;;;0.73;;
47966;SDS011;33733;52.456;13.620;2023-05-07T14:35:11;2.40;;;0.50;;
47966;SDS011;33733;52.456;13.620;2023-05-07T14:37:38;3.58;;;0.70;;
47966;SDS011;33733;52.456;13.620;2023-05-07T14:40:05;2.53;;;0.70;;
47966;SDS011;33733;52.456;13.620;2023-05-07T14:42:32;2.03;;;0.47;;
47966;SDS011;33733;52.456;13.620;2023-05-07T14:44:58;1.60;;;0.50;;
47966;SDS011;33733;52.456;13.620;2023-05-07T14:47:25;2.05;;;0.68;;
47966;SDS011;33733;52.456;13.620;2023-05-07T14:49:51;1.92;;;0.50;;
47966;SDS011;33733;52.456;13.620;2023-05-07T14:52:19;1.88;;;0.30;;